Time;durP1;ratioP1;P1;durP2;ratioP2;P2;SDS_P1;SDS_P2;PMS_P1;PMS_P2;Temp;Humidity;BMP_temperature;BMP_pressure;BME280_temperature;BME280_humidity;BME280_pressure;Samples;Min_cycle;Max_cycle;Signal;HPM_P1;HPM_P2
2022/06/13 00:00:11;;;;;;;1.10;0.45;;;13.20;99.90;;;;;;5029605;28;20025;-68
2022/06/13 00:02:38;;;;;;;1.58;0.20;;;13.40;99.90;;;;;;5025265;28;20116;-68
2022/06/13 00:05:08;;;;;;;1.80;0.20;;;13.40;99.90;;;;;;5029008;28;20087;-68
2022/06/13 00:07:35;;;;;;;1.55;0.38;;;13.50;99.90;;;;;;5021496;28;20034;-68
2022/06/13 00:10:03;;;;;;;1.23;0.20;;;13.70;99.90;;;;;;5028998;28;20398;-68
2022/06/13 00:12:31;;;;;;;1.00;0.20;;;13.70;99.90;;;;;;5016052;28;20028;-68
2022/06/13 00:14:58;;;;;;;1.30;0.38;;;13.70;99.90;;;;;;5015961;28;20112;-68
2022/06/13 00:17:25;;;;;;;1.42;0.30;;;13.70;99.90;;;;;;5020156;28;20116;-68
2022/06/13 00:19:53;;;;;;;0.50;0.10;;;13.70;99.90;;;;;;5022634;28;20045;-68
2022/06/13 00:22:20;;;;;;;2.10;1.10;;;13.80;99.90;;;;;;5025997;28;20026;-68
2022/06/13 00:24:48;;;;;;;4.43;0.30;;;13.90;99.90;;;;;;5021006;28;20033;-68
2022/06/13 00:27:15;;;;;;;1.10;0.28;;;13.80;99.90;;;;;;5023740;28;20217;-67
2022/06/13 00:29:44;;;;;;;2.25;0.40;;;13.80;99.90;;;;;;5016088;28;20034;-67
2022/06/13 00:32:11;;;;;;;1.40;0.40;;;13.90;99.90;;;;;;5026199;28;20033;-68
2022/06/13 00:34:39;;;;;;;1.55;0.60;;;14.00;99.90;;;;;;5024608;28;20124;-67
2022/06/13 00:37:06;;;;;;;1.10;0.20;;;14.10;99.90;;;;;;5033897;28;20064;-67
2022/06/13 00:39:34;;;;;;;1.35;0.30;;;14.00;99.90;;;;;;5016487;28;20030;-67
2022/06/13 00:42:01;;;;;;;0.50;0.20;;;14.00;99.90;;;;;;5024218;28;20021;-67
2022/06/13 00:44:32;;;;;;;0.38;0.25;;;14.00;99.90;;;;;;5022558;28;20026;-67
2022/06/13 00:46:59;;;;;;;1.23;0.60;;;14.10;99.90;;;;;;5021892;28;20513;-67
2022/06/13 00:49:40;;;;;;;1.27;0.30;;;14.10;99.90;;;;;;5030557;28;20021;-68
2022/06/13 00:52:22;;;;;;;1.90;0.20;;;14.10;99.90;;;;;;5030090;28;20029;-67
2022/06/13 00:54:52;;;;;;;0.82;0.20;;;14.00;99.90;;;;;;5013915;28;20100;-67
2022/06/13 00:57:22;;;;;;;3.35;0.60;;;14.20;99.90;;;;;;5018719;28;20501;-67
2022/06/13 00:59:54;;;;;;;0.65;0.30;;;14.30;99.90;;;;;;5014589;28;20045;-67
2022/06/13 01:02:22;;;;;;;2.05;0.20;;;14.20;99.90;;;;;;5016230;28;20049;-67
2022/06/13 01:04:52;;;;;;;1.65;0.30;;;14.10;99.90;;;;;;5012084;28;20139;-67
2022/06/13 01:07:21;;;;;;;1.95;0.40;;;14.20;99.90;;;;;;5026420;28;20022;-68
2022/06/13 01:12:37;;;;;;;3.78;0.63;;;14.40;99.90;;;;;;5026278;28;20447;-67
2022/06/13 01:15:11;;;;;;;1.55;0.30;;;14.40;99.90;;;;;;5012350;28;20022;-68
2022/06/13 01:18:19;;;;;;;2.22;0.40;;;14.50;99.90;;;;;;5013630;28;20033;-67
2022/06/13 01:20:58;;;;;;;1.38;0.30;;;14.40;99.90;;;;;;5033519;28;20064;-67
2022/06/13 01:23:51;;;;;;;2.13;0.45;;;14.60;99.90;;;;;;5035364;28;20044;-67
2022/06/13 01:26:58;;;;;;;2.50;0.63;;;14.60;99.90;;;;;;5028606;28;20029;-68
2022/06/13 01:29:51;;;;;;;1.73;0.38;;;14.60;99.90;;;;;;5015419;28;20033;-67
2022/06/13 01:32:27;;;;;;;1.15;0.40;;;14.70;99.90;;;;;;5014876;28;20430;-67
2022/06/13 01:35:02;;;;;;;2.67;0.38;;;14.60;99.90;;;;;;5014081;28;20375;-68
2022/06/13 01:37:28;;;;;;;;;;;14.70;99.90;;;;;;5018601;28;20021;-68
2022/06/13 01:40:01;;;;;;;3.17;0.50;;;14.70;99.90;;;;;;5031994;28;19905;-67
2022/06/13 01:42:55;;;;;;;1.08;0.30;;;14.80;99.90;;;;;;5017448;28;20033;-67
2022/06/13 01:45:44;;;;;;;1.00;0.40;;;15.00;99.90;;;;;;5015404;28;20394;-67
2022/06/13 01:48:14;;;;;;;5.57;0.50;;;15.20;99.90;;;;;;5015115;28;20041;-67
2022/06/13 01:50:58;;;;;;;2.92;0.60;;;15.30;99.90;;;;;;5015588;28;20025;-67
2022/06/13 01:53:44;;;;;;;1.52;0.40;;;15.30;99.90;;;;;;5034658;28;20490;-68
2022/06/13 01:56:14;;;;;;;3.03;0.40;;;15.40;99.90;;;;;;5031770;28;20040;-67
2022/06/13 01:59:10;;;;;;;2.60;0.50;;;15.50;99.90;;;;;;5034884;28;20043;-67
2022/06/13 02:01:44;;;;;;;3.30;0.40;;;15.50;99.90;;;;;;5033215;28;20040;-68
2022/06/13 02:04:34;;;;;;;2.20;0.57;;;15.50;99.90;;;;;;5028419;28;20096;-67
2022/06/13 02:07:14;;;;;;;2.13;0.40;;;15.50;99.90;;;;;;5014856;28;20705;-67
2022/06/13 02:09:53;;;;;;;3.90;0.80;;;15.60;99.90;;;;;;5014687;28;20398;-67
2022/06/13 02:12:23;;;;;;;3.35;0.60;;;15.60;99.90;;;;;;5027008;28;20097;-67
2022/06/13 02:14:57;;;;;;;2.40;0.57;;;15.80;99.90;;;;;;5014646;28;20029;-67
2022/06/13 02:17:29;;;;;;;2.78;0.40;;;15.90;99.90;;;;;;5017590;28;20359;-68
2022/06/13 02:20:07;;;;;;;3.90;0.50;;;16.30;99.90;;;;;;5026438;28;20029;-68
2022/06/13 02:22:49;;;;;;;2.33;0.75;;;17.00;99.80;;;;;;5016362;28;20072;-67
2022/06/13 02:25:22;;;;;;;1.63;0.45;;;17.70;99.50;;;;;;5014330;28;20486;-67
2022/06/13 02:27:58;;;;;;;3.85;0.55;;;18.90;98.30;;;;;;5032831;28;20065;-67
2022/06/13 02:30:32;;;;;;;3.35;0.70;;;19.40;97.50;;;;;;5015699;28;20549;-67
2022/06/13 02:33:50;;;;;;;2.33;0.70;;;18.80;96.80;;;;;;5012667;28;20034;-68
2022/06/13 02:36:54;;;;;;;3.42;0.50;;;19.80;96.80;;;;;;5032033;28;20033;-67
2022/06/13 02:39:31;;;;;;;3.13;0.60;;;20.30;95.50;;;;;;5031167;28;20041;-68
2022/06/13 02:42:23;;;;;;;4.25;0.82;;;19.10;96.90;;;;;;5016591;28;20049;-67
2022/06/13 02:45:10;;;;;;;3.50;0.60;;;19.50;97.00;;;;;;5029255;28;20030;-67
2022/06/13 02:47:52;;;;;;;5.78;0.88;;;19.40;95.30;;;;;;5013769;28;20100;-67
2022/06/13 02:50:30;;;;;;;2.08;0.50;;;18.70;95.70;;;;;;5027558;28;20102;-67
2022/06/13 02:53:09;;;;;;;5.90;0.85;;;19.20;98.00;;;;;;5032343;28;20425;-68
2022/06/13 02:55:46;;;;;;;4.00;0.68;;;18.90;95.40;;;;;;5032644;28;20100;-67
2022/06/13 02:58:52;;;;;;;1.90;0.60;;;19.30;95.90;;;;;;5031193;28;20112;-68
2022/06/13 03:01:25;;;;;;;1.23;0.38;;;18.80;97.90;;;;;;5021736;28;20030;-67
2022/06/13 03:04:18;;;;;;;2.22;0.40;;;19.60;96.20;;;;;;5016943;28;20453;-67
2022/06/13 03:06:48;;;;;;;4.38;0.55;;;18.40;95.20;;;;;;5014191;28;20036;-67
2022/06/13 03:09:24;;;;;;;3.33;0.88;;;18.50;97.10;;;;;;5024725;28;20026;-67
2022/06/13 03:11:55;;;;;;;4.25;0.70;;;18.10;97.50;;;;;;5016547;28;20473;-67
2022/06/13 03:14:37;;;;;;;4.22;0.80;;;18.90;96.20;;;;;;5027649;28;20018;-67
2022/06/13 03:17:29;;;;;;;3.40;1.08;;;18.40;95.80;;;;;;5013533;28;20355;-67
2022/06/13 03:20:15;;;;;;;2.35;0.73;;;17.70;96.30;;;;;;5028285;28;20034;-67
2022/06/13 03:23:14;;;;;;;4.82;1.00;;;17.10;96.90;;;;;;5014060;28;20036;-67
2022/06/13 03:25:54;;;;;;;4.47;1.08;;;16.70;97.30;;;;;;5015227;28;20125;-67
2022/06/13 03:28:45;;;;;;;2.97;0.63;;;17.50;98.80;;;;;;5032883;28;20030;-67
2022/06/13 03:31:15;;;;;;;4.97;0.88;;;19.00;97.30;;;;;;5025112;28;20014;-67
2022/06/13 03:33:47;;;;;;;5.18;1.25;;;17.50;96.20;;;;;;5012863;28;20084;-67
2022/06/13 03:36:24;;;;;;;4.75;0.88;;;16.80;97.20;;;;;;5017603;28;20057;-67
2022/06/13 03:38:57;;;;;;;4.25;0.75;;;16.50;97.70;;;;;;5023773;28;20025;-67
2022/06/13 03:41:32;;;;;;;4.07;0.70;;;16.50;97.80;;;;;;5026968;28;20021;-67
2022/06/13 03:44:11;;;;;;;3.30;0.80;;;16.40;97.70;;;;;;5013825;28;20282;-67
2022/06/13 03:46:52;;;;;;;6.60;0.60;;;16.40;97.90;;;;;;5014972;28;20375;-67
2022/06/13 03:49:29;;;;;;;3.28;0.80;;;16.50;98.80;;;;;;5011155;28;20385;-67
2022/06/13 03:51:58;;;;;;;3.17;0.80;;;16.90;97.80;;;;;;5012377;28;20026;-68
2022/06/13 03:54:39;;;;;;;3.30;0.50;;;17.00;99.50;;;;;;5012106;28;20074;-67
2022/06/13 03:57:17;;;;;;;3.13;0.95;;;17.70;99.90;;;;;;5012080;28;20025;-67
2022/06/13 04:00:00;;;;;;;8.07;0.98;;;18.30;97.00;;;;;;5012497;28;20101;-67
2022/06/13 04:02:33;;;;;;;4.95;1.25;;;17.20;97.60;;;;;;5012986;28;20391;-67
2022/06/13 04:05:01;;;;;;;4.27;0.50;;;17.60;98.40;;;;;;5012167;28;20018;-67
2022/06/13 04:07:33;;;;;;;4.18;0.65;;;17.60;98.30;;;;;;5012838;28;20361;-67
2022/06/13 04:10:10;;;;;;;3.15;0.60;;;16.90;99.70;;;;;;5012476;28;20122;-67
2022/06/13 04:13:03;;;;;;;5.20;0.77;;;17.10;98.10;;;;;;5012403;28;20037;-67
2022/06/13 04:15:57;;;;;;;5.50;1.15;;;16.80;98.30;;;;;;5012176;28;20050;-67
2022/06/13 04:18:43;;;;;;;4.38;0.85;;;16.30;98.10;;;;;;5012494;28;20070;-67
2022/06/13 04:21:51;;;;;;;2.60;0.70;;;16.00;98.90;;;;;;5012290;28;20022;-67
2022/06/13 04:24:42;;;;;;;2.53;0.52;;;15.60;99.20;;;;;;5014466;28;20099;-67
2022/06/13 04:27:09;;;;;;;2.45;0.73;;;16.00;99.90;;;;;;5017291;28;20040;-67
2022/06/13 04:29:59;;;;;;;4.95;2.92;;;15.90;98.60;;;;;;5031879;28;20033;-67
2022/06/13 04:32:37;;;;;;;4.40;1.30;;;15.40;98.90;;;;;;5019281;28;20044;-67
2022/06/13 04:35:05;;;;;;;5.22;0.90;;;15.30;98.90;;;;;;5011711;28;20041;-67
2022/06/13 04:37:33;;;;;;;5.65;1.00;;;15.20;99.10;;;;;;5011289;28;20025;-67
2022/06/13 04:40:23;;;;;;;4.03;1.08;;;15.30;99.90;;;;;;5011619;28;20079;-67
2022/06/13 04:42:52;;;;;;;3.15;0.60;;;15.60;99.90;;;;;;5012539;28;20489;-67
2022/06/13 04:45:52;;;;;;;7.30;0.75;;;15.60;99.70;;;;;;5013731;28;20553;-67
2022/06/13 04:48:21;;;;;;;3.67;1.23;;;15.50;98.90;;;;;;5023766;28;20017;-66
2022/06/13 04:51:10;;;;;;;6.55;0.60;;;15.70;99.20;;;;;;5029123;28;20452;-67
2022/06/13 04:53:56;;;;;;;4.88;0.90;;;15.80;99.90;;;;;;5035833;28;20072;-67
2022/06/13 04:56:24;;;;;;;5.20;0.82;;;15.70;99.10;;;;;;5038947;28;20021;-66
2022/06/13 04:58:54;;;;;;;2.53;0.95;;;15.20;99.00;;;;;;5036876;28;20093;-66
2022/06/13 05:01:27;;;;;;;4.38;0.93;;;15.30;99.90;;;;;;5030957;28;20379;-67
2022/06/13 05:03:57;;;;;;;6.87;1.00;;;15.40;99.90;;;;;;5034914;28;20025;-67
2022/06/13 05:06:38;;;;;;;4.05;0.60;;;15.30;99.90;;;;;;5022683;28;20291;-67
2022/06/13 05:09:11;;;;;;;5.85;0.73;;;15.40;99.90;;;;;;5038988;28;20059;-67
2022/06/13 05:11:57;;;;;;;5.35;0.70;;;15.20;99.80;;;;;;5025877;28;20034;-67
2022/06/13 05:14:32;;;;;;;5.15;0.93;;;15.30;99.90;;;;;;5018783;28;20033;-67
2022/06/13 05:17:15;;;;;;;4.43;0.98;;;15.30;99.90;;;;;;5028304;28;20017;-67
2022/06/13 05:19:59;;;;;;;4.95;0.98;;;15.30;99.90;;;;;;5026831;28;20453;-67
2022/06/13 05:22:57;;;;;;;5.13;0.87;;;15.30;99.90;;;;;;5033607;28;20108;-67
2022/06/13 05:25:33;;;;;;;1.95;0.70;;;15.30;99.90;;;;;;5027510;28;20088;-67
2022/06/13 05:28:00;;;;;;;4.70;1.00;;;15.20;99.90;;;;;;5015468;28;20482;-67
2022/06/13 05:30:28;;;;;;;2.45;0.55;;;15.30;99.90;;;;;;5019744;28;20036;-67
2022/06/13 05:32:57;;;;;;;3.72;0.52;;;15.30;99.90;;;;;;5020373;28;20021;-67
2022/06/13 05:35:35;;;;;;;3.67;0.60;;;15.30;99.90;;;;;;5014562;28;20475;-67
2022/06/13 05:38:05;;;;;;;7.47;0.90;;;15.30;99.90;;;;;;5015039;28;20452;-66
2022/06/13 05:40:32;;;;;;;10.18;1.00;;;15.30;99.90;;;;;;5018121;28;20488;-66
2022/06/13 05:42:59;;;;;;;3.80;1.58;;;15.20;99.90;;;;;;5017624;28;20497;-67
2022/06/13 05:45:27;;;;;;;7.47;2.13;;;15.10;99.90;;;;;;5022637;28;20033;-67
2022/06/13 05:47:55;;;;;;;8.00;1.45;;;15.20;99.90;;;;;;5033096;28;20060;-67
2022/06/13 05:50:26;;;;;;;4.95;1.15;;;15.00;99.90;;;;;;5025045;28;20026;-67
2022/06/13 05:52:53;;;;;;;3.78;1.08;;;14.90;99.90;;;;;;5032916;28;20049;-68
2022/06/13 05:55:20;;;;;;;3.85;3.00;;;14.90;99.90;;;;;;5017842;28;20050;-67
2022/06/13 05:57:48;;;;;;;10.65;3.97;;;14.80;99.90;;;;;;5029644;28;20180;-66
2022/06/13 06:00:26;;;;;;;8.75;3.45;;;14.60;99.90;;;;;;5026239;28;20501;-66
2022/06/13 06:02:53;;;;;;;8.93;2.65;;;15.20;99.90;;;;;;5024190;28;20029;-66
2022/06/13 06:05:21;;;;;;;6.07;2.95;;;15.00;99.90;;;;;;5027067;28;20498;-66
2022/06/13 06:07:48;;;;;;;7.18;3.20;;;14.80;99.90;;;;;;5021015;28;20524;-67
2022/06/13 06:10:20;;;;;;;4.53;1.60;;;14.80;99.90;;;;;;5025164;28;20125;-66
2022/06/13 06:12:47;;;;;;;4.78;1.23;;;14.50;99.90;;;;;;5025998;28;20448;-66
2022/06/13 06:15:15;;;;;;;5.03;1.23;;;14.40;99.90;;;;;;5024417;28;20037;-67
2022/06/13 06:17:42;;;;;;;5.30;1.00;;;14.40;99.90;;;;;;5017912;28;20030;-67
2022/06/13 06:20:16;;;;;;;6.13;0.98;;;14.30;99.90;;;;;;5027954;28;20017;-66
2022/06/13 06:22:43;;;;;;;;;;;14.30;99.90;;;;;;5029714;28;20029;-66
2022/06/13 06:25:10;;;;;;;5.07;1.00;;;14.20;99.90;;;;;;5027479;28;20417;-66
2022/06/13 06:27:38;;;;;;;8.68;1.35;;;14.10;99.90;;;;;;5016323;28;20030;-66
2022/06/13 06:30:11;;;;;;;5.32;1.25;;;14.10;99.90;;;;;;5028350;28;20038;-67
2022/06/13 06:32:38;;;;;;;5.95;1.45;;;14.10;99.90;;;;;;5022237;28;20021;-67
2022/06/13 06:35:06;;;;;;;3.33;1.67;;;14.10;99.90;;;;;;5018859;28;20038;-67
2022/06/13 06:37:33;;;;;;;4.50;1.60;;;14.10;99.90;;;;;;5020801;28;20022;-67
2022/06/13 06:40:01;;;;;;;4.82;1.20;;;14.00;99.90;;;;;;5013799;28;20049;-67
2022/06/13 06:42:28;;;;;;;6.60;2.08;;;13.80;99.90;;;;;;5020407;28;20045;-67
2022/06/13 06:44:55;;;;;;;6.40;1.00;;;13.70;99.90;;;;;;5019533;28;20233;-67
2022/06/13 06:47:22;;;;;;;3.95;0.98;;;13.60;99.90;;;;;;5036284;28;20028;-67
2022/06/13 06:49:50;;;;;;;8.05;1.40;;;13.60;99.90;;;;;;5045774;28;20168;-67
2022/06/13 06:52:17;;;;;;;4.68;1.55;;;13.50;99.90;;;;;;5029778;28;20025;-67
2022/06/13 07:00:16;;;;;;;8.13;1.58;;;13.50;99.90;;;;;;5027576;28;20110;-67
2022/06/13 07:02:43;;;;;;;11.43;2.22;;;13.50;99.90;;;;;;5033147;28;20039;-67
2022/06/13 07:05:12;;;;;;;5.75;1.98;;;13.50;99.90;;;;;;5015863;28;20434;-67
2022/06/13 07:07:40;;;;;;;6.35;2.08;;;13.40;99.90;;;;;;5029701;28;20454;-67
2022/06/13 07:10:08;;;;;;;7.05;2.05;;;13.40;99.90;;;;;;5026864;28;20026;-67
2022/06/13 07:12:35;;;;;;;5.68;1.55;;;13.40;99.90;;;;;;5013263;28;20398;-67
2022/06/13 07:15:03;;;;;;;5.55;1.98;;;13.30;99.90;;;;;;5015200;28;20053;-67
2022/06/13 07:17:30;;;;;;;6.15;1.90;;;13.30;99.90;;;;;;5018562;28;20037;-67
2022/06/13 07:19:57;;;;;;;4.18;2.42;;;13.20;99.90;;;;;;5028779;28;20029;-68
2022/06/13 07:22:27;;;;;;;8.20;2.53;;;13.10;99.90;;;;;;5030361;28;20037;-68
2022/06/13 07:24:54;;;;;;;8.25;3.55;;;13.00;99.90;;;;;;5028633;28;20038;-68
2022/06/13 07:27:21;;;;;;;5.88;2.80;;;12.90;99.90;;;;;;5017949;28;20398;-67
2022/06/13 07:29:49;;;;;;;12.95;3.72;;;12.80;99.90;;;;;;5023863;28;20025;-68
2022/06/13 07:32:22;;;;;;;7.00;2.97;;;12.70;99.90;;;;;;5020395;28;20017;-67
2022/06/13 07:34:53;;;;;;;6.93;2.60;;;12.60;99.90;;;;;;5022905;28;20104;-67
2022/06/13 07:40:11;;;;;;;7.57;2.60;;;12.50;99.90;;;;;;5016442;28;20104;-68
2022/06/13 07:42:46;;;;;;;8.07;2.47;;;12.50;99.90;;;;;;5029264;28;20060;-67
2022/06/13 07:45:17;;;;;;;11.80;3.80;;;12.40;99.90;;;;;;5020295;28;20026;-67
2022/06/13 07:47:44;;;;;;;8.68;2.42;;;12.40;99.90;;;;;;5021549;28;20124;-68
2022/06/13 07:50:15;;;;;;;6.63;2.47;;;12.40;99.90;;;;;;5028085;28;20064;-67
2022/06/13 07:52:42;;;;;;;6.13;2.28;;;12.40;99.90;;;;;;5012571;28;20080;-67
2022/06/13 07:55:10;;;;;;;4.72;2.10;;;12.30;99.90;;;;;;5026125;28;20044;-67
2022/06/13 07:57:38;;;;;;;7.22;2.25;;;12.30;99.90;;;;;;5021316;28;20393;-68
2022/06/13 08:00:17;;;;;;;6.53;2.08;;;12.30;99.90;;;;;;5027222;28;20041;-68
2022/06/13 08:02:45;;;;;;;5.93;2.00;;;12.20;99.90;;;;;;5026139;28;20022;-67
2022/06/13 08:05:12;;;;;;;12.75;2.58;;;12.20;99.90;;;;;;5027009;28;20531;-68
2022/06/13 08:07:39;;;;;;;11.32;2.58;;;12.20;99.90;;;;;;5017222;28;20022;-68
2022/06/13 08:10:07;;;;;;;6.75;2.22;;;12.20;99.90;;;;;;5012612;28;20058;-67
2022/06/13 08:12:34;;;;;;;8.38;2.05;;;12.20;99.90;;;;;;5012298;28;20026;-68
2022/06/13 08:15:02;;;;;;;8.35;2.83;;;12.20;99.90;;;;;;5021464;28;20537;-68
2022/06/13 08:17:30;;;;;;;5.03;1.92;;;12.20;99.90;;;;;;5018910;28;20026;-68
2022/06/13 08:19:57;;;;;;;12.63;3.20;;;12.20;99.90;;;;;;5014602;28;20033;-67
2022/06/13 08:22:24;;;;;;;15.05;3.88;;;12.20;99.90;;;;;;5039037;28;20061;-67
2022/06/13 08:24:52;;;;;;;9.18;3.88;;;12.20;99.90;;;;;;5034389;28;20486;-68
2022/06/13 08:27:19;;;;;;;17.40;5.05;;;12.20;99.90;;;;;;5033320;28;20026;-67
2022/06/13 08:29:46;;;;;;;18.38;5.28;;;12.10;99.90;;;;;;5016352;28;20021;-66
2022/06/13 08:32:15;;;;;;;14.50;4.35;;;12.10;99.90;;;;;;5045776;28;20070;-68
2022/06/13 08:34:42;;;;;;;10.38;3.53;;;12.10;99.90;;;;;;5024577;28;20025;-67
2022/06/13 08:37:09;;;;;;;7.82;2.30;;;12.10;99.90;;;;;;5037734;28;20494;-67
2022/06/13 08:39:37;;;;;;;6.03;2.55;;;12.10;99.90;;;;;;5028630;28;20021;-67
2022/06/13 08:42:15;;;;;;;4.57;2.20;;;12.00;99.90;;;;;;5033608;28;20477;-67
2022/06/13 08:44:54;;;;;;;6.38;2.33;;;12.00;99.90;;;;;;5032038;28;20036;-68
2022/06/13 08:47:27;;;;;;;8.65;3.25;;;12.00;99.90;;;;;;5024978;28;20044;-67
2022/06/13 08:49:57;;;;;;;7.68;3.55;;;12.10;99.90;;;;;;5029885;28;20052;-67
2022/06/13 08:52:30;;;;;;;9.60;4.22;;;12.10;99.90;;;;;;5037380;28;20502;-68
2022/06/13 08:55:12;;;;;;;10.73;4.80;;;12.10;99.90;;;;;;5030078;28;20512;-68
2022/06/13 08:57:49;;;;;;;16.42;6.15;;;12.20;99.90;;;;;;5030125;28;20028;-67
2022/06/13 09:00:25;;;;;;;20.20;8.10;;;12.10;99.90;;;;;;5039345;28;20022;-68
2022/06/13 09:03:09;;;;;;;17.08;6.40;;;12.10;99.90;;;;;;5037348;28;20029;-67
2022/06/13 09:06:01;;;;;;;11.93;6.20;;;12.20;99.90;;;;;;5032432;28;20033;-68
2022/06/13 09:08:47;;;;;;;12.38;5.95;;;12.40;99.90;;;;;;5033266;28;20044;-67
2022/06/13 09:11:23;;;;;;;14.75;6.55;;;12.40;99.90;;;;;;5023079;28;20390;-67
2022/06/13 09:13:57;;;;;;;10.32;6.70;;;12.40;99.90;;;;;;5024554;28;20022;-67
2022/06/13 09:16:32;;;;;;;;;;;12.30;99.90;;;;;;5048436;28;20506;-68
2022/06/13 09:19:11;;;;;;;16.27;6.72;;;12.30;99.90;;;;;;5046580;28;20000;-68
2022/06/13 09:21:43;;;;;;;12.43;7.32;;;12.20;99.90;;;;;;5041212;28;20433;-67
2022/06/13 09:24:27;;;;;;;11.70;6.53;;;12.20;99.90;;;;;;5043785;28;20121;-67
2022/06/13 09:27:14;;;;;;;14.68;6.47;;;12.20;99.90;;;;;;5043488;28;20065;-68
2022/06/13 09:29:51;;;;;;;13.40;7.03;;;12.20;99.90;;;;;;5048687;28;20030;-68
2022/06/13 09:32:21;;;;;;;16.38;7.95;;;12.30;99.90;;;;;;5039221;28;20021;-68
2022/06/13 09:35:22;;;;;;;12.95;6.80;;;12.40;99.90;;;;;;5043526;28;20024;-68
2022/06/13 09:38:17;;;;;;;14.77;8.60;;;12.40;99.90;;;;;;5032647;28;20025;-67
2022/06/13 09:40:59;;;;;;;15.13;7.00;;;12.40;99.90;;;;;;5042740;28;20028;-68
2022/06/13 09:43:46;;;;;;;10.35;6.13;;;12.40;99.90;;;;;;5042374;28;20018;-67
2022/06/13 09:46:25;;;;;;;12.88;7.22;;;12.30;99.90;;;;;;5025371;28;20068;-67
2022/06/13 09:49:04;;;;;;;13.88;7.75;;;12.30;99.90;;;;;;5025391;28;20043;-67
2022/06/13 09:51:31;;;;;;;14.57;7.85;;;12.30;99.90;;;;;;5036839;28;20025;-67
2022/06/13 09:54:13;;;;;;;17.48;7.53;;;12.20;99.90;;;;;;5038487;28;20045;-67
2022/06/13 09:57:17;;;;;;;12.45;7.63;;;12.20;99.90;;;;;;5029823;28;20098;-67
2022/06/13 09:59:58;;;;;;;18.92;7.65;;;12.00;99.90;;;;;;5032459;28;20047;-68
2022/06/13 10:03:06;;;;;;;14.00;6.63;;;12.00;99.90;;;;;;5041554;28;20029;-67
2022/06/13 10:05:38;;;;;;;12.60;5.88;;;11.80;99.90;;;;;;5026846;28;20033;-67
2022/06/13 10:08:09;;;;;;;10.20;6.10;;;11.70;99.90;;;;;;5032660;28;20402;-67
2022/06/13 10:10:47;;;;;;;10.07;5.47;;;11.60;99.90;;;;;;5049503;28;20036;-67
2022/06/13 10:13:32;;;;;;;18.90;6.65;;;11.60;99.90;;;;;;5052583;28;20060;-67
2022/06/13 10:16:31;;;;;;;11.00;6.80;;;11.70;99.90;;;;;;5042055;28;20490;-68
2022/06/13 10:19:23;;;;;;;12.52;6.28;;;11.80;99.90;;;;;;5029473;28;20043;-68
2022/06/13 10:22:17;;;;;;;13.88;6.60;;;11.80;99.90;;;;;;5039220;28;20501;-68
2022/06/13 10:25:08;;;;;;;11.98;6.43;;;11.80;99.90;;;;;;5054216;28;20529;-68
2022/06/13 10:27:58;;;;;;;11.93;5.90;;;11.70;99.90;;;;;;5026217;28;20445;-67
2022/06/13 10:31:06;;;;;;;15.95;6.53;;;11.80;99.90;;;;;;5042340;28;20067;-68
2022/06/13 10:34:03;;;;;;;13.18;6.97;;;11.80;99.90;;;;;;5037247;28;20060;-68
2022/06/13 10:36:39;;;;;;;14.50;6.53;;;11.80;99.90;;;;;;5033690;28;20452;-68
2022/06/13 10:39:14;;;;;;;18.38;6.95;;;11.80;99.90;;;;;;5041349;28;20060;-68
2022/06/13 10:41:45;;;;;;;15.07;7.03;;;11.80;99.90;;;;;;5033062;28;20017;-68
2022/06/13 10:44:17;;;;;;;12.93;6.70;;;11.70;99.90;;;;;;5033637;28;20026;-68
2022/06/13 10:47:05;;;;;;;13.18;6.05;;;11.70;99.90;;;;;;5032782;28;20033;-67
2022/06/13 10:49:45;;;;;;;14.32;6.85;;;11.60;99.90;;;;;;5036858;28;20030;-67
2022/06/13 10:52:18;;;;;;;15.68;6.30;;;11.60;99.90;;;;;;5028162;28;20037;-67
2022/06/13 10:54:49;;;;;;;11.98;6.30;;;11.50;99.90;;;;;;5033193;28;20555;-65
2022/06/13 10:57:26;;;;;;;10.95;5.97;;;11.50;99.90;;;;;;5028887;28;20022;-67
2022/06/13 11:00:30;;;;;;;11.82;5.85;;;11.50;99.90;;;;;;5041227;28;20029;-66
2022/06/13 11:03:33;;;;;;;11.65;6.97;;;11.50;99.90;;;;;;5028187;28;20030;-69
2022/06/13 11:06:07;;;;;;;12.88;7.20;;;11.50;99.90;;;;;;4947215;28;20536;-66
2022/06/13 11:08:35;;;;;;;13.85;7.40;;;11.50;99.90;;;;;;5022620;28;20033;-67
2022/06/13 11:11:13;;;;;;;11.02;5.97;;;11.50;99.90;;;;;;5053476;28;20060;-66
2022/06/13 11:13:42;;;;;;;25.67;8.30;;;11.40;99.90;;;;;;5053380;28;20079;-67
2022/06/13 11:22:39;;;;;;;10.73;7.07;;;11.40;99.90;;;;;;5033387;28;20058;-66
2022/06/13 11:25:28;;;;;;;13.70;6.30;;;11.30;99.90;;;;;;5038359;28;20064;-67
2022/06/13 11:28:06;;;;;;;12.85;6.88;;;11.30;99.90;;;;;;5031035;28;20083;-69
2022/06/13 11:30:53;;;;;;;9.35;6.63;;;11.30;99.90;;;;;;5040165;28;20551;-69
2022/06/13 11:33:27;;;;;;;12.63;6.32;;;11.30;99.90;;;;;;5020273;28;20097;-69
2022/06/13 11:36:01;;;;;;;16.50;7.38;;;11.30;99.90;;;;;;5033297;28;20388;-69
2022/06/13 11:38:32;;;;;;;15.30;7.43;;;11.30;99.90;;;;;;5026684;28;20040;-69
2022/06/13 11:41:12;;;;;;;14.38;7.72;;;11.20;99.90;;;;;;5022862;28;20025;-67
2022/06/13 11:43:52;;;;;;;10.40;6.85;;;11.20;99.90;;;;;;5022509;28;20025;-66
2022/06/13 11:46:31;;;;;;;17.95;9.75;;;11.20;99.90;;;;;;5020052;28;20034;-66
2022/06/13 11:49:03;;;;;;;13.98;8.30;;;11.10;99.90;;;;;;5026968;28;20115;-66
2022/06/13 11:51:50;;;;;;;15.25;7.47;;;11.10;99.90;;;;;;5028354;28;20033;-66
2022/06/13 11:54:31;;;;;;;14.38;6.93;;;11.10;99.90;;;;;;5028957;28;20505;-66
2022/06/13 11:57:30;;;;;;;13.07;8.13;;;11.10;99.90;;;;;;5026915;28;20363;-67
2022/06/13 12:00:08;;;;;;;18.08;7.72;;;11.10;99.90;;;;;;5026181;28;20041;-68
2022/06/13 12:02:41;;;;;;;15.13;7.20;;;11.00;99.90;;;;;;5029255;28;20057;-68
2022/06/13 12:05:20;;;;;;;13.27;7.72;;;11.00;99.90;;;;;;5037157;28;20030;-68
2022/06/13 12:08:05;;;;;;;17.33;7.35;;;11.00;99.90;;;;;;5023799;28;20489;-68
2022/06/13 12:10:38;;;;;;;14.65;7.53;;;10.90;99.90;;;;;;5026451;28;20026;-67
2022/06/13 12:13:15;;;;;;;14.00;7.15;;;10.90;99.90;;;;;;5026410;28;20028;-68
2022/06/13 12:15:54;;;;;;;12.57;6.57;;;10.90;99.90;;;;;;5025397;28;20033;-67
2022/06/13 12:18:27;;;;;;;15.32;7.10;;;10.90;99.90;;;;;;5047495;28;20034;-67
2022/06/13 12:21:00;;;;;;;21.13;7.38;;;10.90;99.90;;;;;;5033774;28;20074;-68
2022/06/13 12:23:51;;;;;;;13.88;6.93;;;10.90;99.90;;;;;;5040747;28;20032;-68
2022/06/13 12:26:30;;;;;;;13.77;6.78;;;10.90;99.90;;;;;;5043320;28;20125;-67
2022/06/13 12:29:33;;;;;;;13.90;6.78;;;10.90;99.90;;;;;;5027834;28;20143;-67
2022/06/13 12:32:06;;;;;;;15.57;7.65;;;10.90;99.90;;;;;;5031802;28;20026;-67
2022/06/13 12:34:38;;;;;;;13.45;7.32;;;10.90;99.90;;;;;;5022469;28;20513;-67
2022/06/13 12:37:12;;;;;;;15.30;8.00;;;10.80;99.90;;;;;;5020320;28;20063;-67
2022/06/13 12:40:01;;;;;;;17.92;8.35;;;10.80;99.90;;;;;;5018585;28;20021;-67
2022/06/13 12:43:08;;;;;;;14.77;7.72;;;10.80;99.90;;;;;;5024270;28;20030;-68
2022/06/13 12:45:48;;;;;;;12.68;8.68;;;10.80;99.90;;;;;;5025849;28;20080;-67
2022/06/13 12:48:44;;;;;;;16.65;9.18;;;10.70;99.90;;;;;;5023339;28;20030;-67
2022/06/13 12:51:52;;;;;;;14.45;8.90;;;10.50;99.90;;;;;;5017795;28;20489;-67
2022/06/13 12:54:47;;;;;;;19.63;9.43;;;10.40;99.90;;;;;;5049834;28;20201;-67
2022/06/13 12:57:35;;;;;;;17.08;9.43;;;10.40;99.90;;;;;;5023355;28;20025;-68
2022/06/13 13:00:20;;;;;;;18.40;10.88;;;10.30;99.90;;;;;;5021663;28;20685;-67
2022/06/13 13:02:50;;;;;;;17.40;10.65;;;10.00;99.90;;;;;;5021106;28;20030;-67
2022/06/13 13:05:29;;;;;;;18.40;11.68;;;9.90;99.90;;;;;;5036827;28;20109;-67
2022/06/13 13:08:08;;;;;;;17.00;11.52;;;9.80;99.90;;;;;;5026783;28;20082;-67
2022/06/13 13:10:46;;;;;;;24.67;12.80;;;9.60;99.90;;;;;;5024417;28;20036;-67
2022/06/13 13:13:40;;;;;;;22.92;12.73;;;9.40;99.90;;;;;;5022914;28;20109;-68
2022/06/13 13:16:23;;;;;;;19.70;12.27;;;9.30;99.90;;;;;;5023918;28;20433;-67
2022/06/13 13:18:59;;;;;;;22.13;12.30;;;9.20;99.90;;;;;;5019733;28;20113;-67
2022/06/13 13:21:37;;;;;;;19.63;12.20;;;9.20;99.90;;;;;;5043560;28;20017;-67
2022/06/13 13:24:35;;;;;;;19.17;12.63;;;9.20;99.90;;;;;;5030680;28;20048;-67
2022/06/13 13:27:10;;;;;;;24.25;12.18;;;9.10;99.90;;;;;;5026152;28;20032;-67
2022/06/13 13:29:49;;;;;;;21.88;11.93;;;9.10;99.90;;;;;;5027998;28;20029;-67
2022/06/13 13:32:25;;;;;;;19.52;11.85;;;9.10;99.90;;;;;;5019170;28;20026;-68
2022/06/13 13:34:55;;;;;;;19.75;11.98;;;9.10;99.90;;;;;;5029397;28;20058;-67
2022/06/13 13:37:32;;;;;;;19.70;11.48;;;9.10;99.90;;;;;;5023567;28;20036;-68
2022/06/13 13:40:15;;;;;;;21.75;11.13;;;9.20;99.90;;;;;;5030652;28;20028;-67
2022/06/13 13:43:05;;;;;;;17.92;10.55;;;9.30;99.90;;;;;;5033216;28;20163;-67
2022/06/13 13:45:50;;;;;;;20.92;12.35;;;9.30;99.90;;;;;;5024579;28;20129;-68
2022/06/13 13:48:35;;;;;;;22.02;12.20;;;9.10;99.90;;;;;;5022785;28;20032;-67
2022/06/13 13:51:06;;;;;;;23.83;12.32;;;9.10;99.90;;;;;;5020067;28;20445;-68